Time;durP1;ratioP1;P1;durP2;ratioP2;P2;SDS_P1;SDS_P2;PMS_P1;PMS_P2;Temp;Humidity;BMP_temperature;BMP_pressure;BME280_temperature;BME280_humidity;BME280_pressure;Samples;Min_cycle;Max_cycle;Signal;HPM_P1;HPM_P2
2023/02/28 00:13:48;;;;;;;18.55;12.88;;;;;;;;;;5746703;23;19961;-96
2023/02/28 00:16:16;;;;;;;21.50;15.18;;;;;;;;;;4963681;28;20043;-95
2023/02/28 00:18:42;;;;;;;21.70;15.00;;;;;;;;;;4961162;28;20031;-95
2023/02/28 00:21:09;;;;;;;21.48;14.50;;;;;;;;;;4963794;28;20027;-95
2023/02/28 00:23:37;;;;;;;18.95;14.75;;;;;;;;;;4972697;28;20042;-96
2023/02/28 00:26:24;;;;;;;24.63;17.20;;;;;;;;;;4973755;28;20067;-96
2023/02/28 00:29:13;;;;;;;21.95;15.70;;;;;;;;;;4971624;28;20035;-95
2023/02/28 00:37:38;;;;;;;20.98;15.07;;;;;;;;;;5552004;23;20062;-96
2023/02/28 00:43:07;;;;;;;21.75;14.60;;;;;;;;;;4981794;28;20033;-96
2023/02/28 00:45:33;;;;;;;20.02;14.38;;;;;;;;;;4983133;28;20062;-96
2023/02/28 00:47:59;;;;;;;23.27;15.65;;;;;;;;;;4982296;28;20058;-96
2023/02/28 00:50:26;;;;;;;22.88;15.32;;;;;;;;;;4983280;28;20375;-96
2023/02/28 00:52:52;;;;;;;25.10;16.42;;;;;;;;;;4983736;28;20049;-96
2023/02/28 00:58:22;;;;;;;23.80;16.30;;;;;;;;;;4990979;28;20118;-96
2023/02/28 01:00:49;;;;;;;24.73;16.73;;;;;;;;;;4988227;28;20413;-96
2023/02/28 01:03:16;;;;;;;22.85;16.50;;;;;;;;;;4970441;28;20030;-96
2023/02/28 01:05:45;;;;;;;25.20;16.42;;;;;;;;;;4987278;28;20035;-96
2023/02/28 01:08:45;;;;;;;21.42;15.20;;;;;;;;;;4986302;28;20030;-96
2023/02/28 01:11:13;;;;;;;24.75;16.05;;;;;;;;;;4986942;28;20035;-96
2023/02/28 01:13:39;;;;;;;24.73;15.75;;;;;;;;;;4986663;28;20413;-96
2023/02/28 01:16:07;;;;;;;26.00;16.70;;;;;;;;;;4985974;28;20037;-96
2023/02/28 01:18:33;;;;;;;25.10;15.70;;;;;;;;;;4986264;28;20034;-96
2023/02/28 01:21:04;;;;;;;24.50;15.93;;;;;;;;;;4985036;28;20061;-96
2023/02/28 01:23:31;;;;;;;28.35;17.75;;;;;;;;;;4986808;28;20031;-96
2023/02/28 01:25:57;;;;;;;26.55;17.58;;;;;;;;;;4985131;28;20440;-96
2023/02/28 01:28:23;;;;;;;29.80;18.20;;;;;;;;;;4983621;28;20066;-95
2023/02/28 01:30:50;;;;;;;29.85;18.30;;;;;;;;;;4979301;28;20027;-95
2023/02/28 01:33:16;;;;;;;30.00;18.67;;;;;;;;;;4992455;28;20023;-96
2023/02/28 01:38:53;;;;;;;28.40;17.20;;;;;;;;;;4994807;28;20143;-96
2023/02/28 01:41:31;;;;;;;25.15;16.67;;;;;;;;;;4976328;28;20047;-96
2023/02/28 01:44:03;;;;;;;25.65;15.98;;;;;;;;;;4963859;28;20046;-96
2023/02/28 01:46:30;;;;;;;27.42;18.38;;;;;;;;;;4981527;28;20027;-95
2023/02/28 01:49:03;;;;;;;27.42;16.98;;;;;;;;;;4981646;28;20329;-96
2023/02/28 01:51:45;;;;;;;25.65;17.15;;;;;;;;;;4981235;28;20022;-96
2023/02/28 01:54:16;;;;;;;23.15;15.63;;;;;;;;;;4980863;28;20027;-95
2023/02/28 01:56:44;;;;;;;25.92;17.00;;;;;;;;;;4963462;28;20035;-96
2023/02/28 01:59:13;;;;;;;26.52;17.75;;;;;;;;;;4965389;28;20074;-96
2023/02/28 02:01:39;;;;;;;26.23;17.40;;;;;;;;;;4964797;28;20030;-96
2023/02/28 02:04:05;;;;;;;24.75;16.48;;;;;;;;;;4965414;28;20027;-95
2023/02/28 02:06:37;;;;;;;22.65;15.20;;;;;;;;;;4984708;28;20027;-96
2023/02/28 02:12:19;;;;;;;21.05;14.25;;;;;;;;;;4992957;28;20081;-96
2023/02/28 02:15:23;;;;;;;23.02;14.05;;;;;;;;;;4990220;28;20034;-96
2023/02/28 02:25:55;;;;;;;19.33;13.43;;;;;;;;;;5149641;23;19922;-96
2023/02/28 02:28:40;;;;;;;18.65;13.23;;;;;;;;;;4987740;28;20027;-95
2023/02/28 02:31:06;;;;;;;19.23;12.27;;;;;;;;;;4971730;28;20027;-96
2023/02/28 02:33:37;;;;;;;18.52;12.55;;;;;;;;;;4972207;28;20493;-96
2023/02/28 02:36:07;;;;;;;19.30;12.68;;;;;;;;;;4990371;28;20424;-96
2023/02/28 02:41:56;;;;;;;16.73;11.45;;;;;;;;;;4987822;28;20037;-96
2023/02/28 02:44:40;;;;;;;18.05;12.25;;;;;;;;;;4968487;28;20027;-96
2023/02/28 02:47:09;;;;;;;18.23;11.40;;;;;;;;;;4963585;29;20350;-95
2023/02/28 02:49:36;;;;;;;16.20;11.25;;;;;;;;;;4948269;29;20402;-96
2023/02/28 02:52:04;;;;;;;18.95;12.23;;;;;;;;;;4949240;29;20031;-95
2023/02/28 02:54:32;;;;;;;17.83;11.60;;;;;;;;;;4966563;29;20334;-96
2023/02/28 02:57:02;;;;;;;21.63;11.55;;;;;;;;;;4967351;29;20027;-95
2023/02/28 02:59:28;;;;;;;17.02;11.43;;;;;;;;;;4966590;29;20024;-95
2023/02/28 03:01:59;;;;;;;20.10;12.38;;;;;;;;;;4966565;29;20051;-95
2023/02/28 03:13:13;;;;;;;16.75;10.75;;;;;;;;;;5396442;23;20074;-96
2023/02/28 03:16:18;;;;;;;15.25;10.38;;;;;;;;;;4994509;28;20043;-96
2023/02/28 03:19:08;;;;;;;17.25;10.30;;;;;;;;;;4994857;28;20046;-95
2023/02/28 03:22:00;;;;;;;16.40;10.88;;;;;;;;;;4992259;28;20027;-95
2023/02/28 03:30:13;;;;;;;16.17;10.07;;;;;;;;;;5579883;23;20051;-96
2023/02/28 03:32:40;;;;;;;16.75;10.00;;;;;;;;;;4934304;29;20040;-95
2023/02/28 03:35:32;;;;;;;15.00;9.65;;;;;;;;;;4928785;29;20036;-95
2023/02/28 03:43:51;;;;;;;13.77;8.98;;;;;;;;;;5007872;28;20037;-96
2023/02/28 03:46:21;;;;;;;15.02;9.68;;;;;;;;;;4993077;28;20034;-96
2023/02/28 03:49:11;;;;;;;13.75;9.25;;;;;;;;;;5012092;28;20035;-96
2023/02/28 03:51:47;;;;;;;12.80;9.15;;;;;;;;;;5011301;28;20035;-96
2023/02/28 03:58:06;;;;;;;14.75;9.13;;;;;;;;;;5001721;23;20361;-96
2023/02/28 04:01:08;;;;;;;14.10;9.18;;;;;;;;;;4992602;28;20050;-96
2023/02/28 04:03:55;;;;;;;25.92;13.23;;;;;;;;;;4997332;28;20030;-96
2023/02/28 04:06:22;;;;;;;25.08;12.50;;;;;;;;;;4975408;28;20058;-95
2023/02/28 04:08:49;;;;;;;16.95;10.43;;;;;;;;;;4986067;28;20022;-96
2023/02/28 04:14:19;;;;;;;17.42;10.88;;;;;;;;;;4987081;28;20033;-96
2023/02/28 04:16:45;;;;;;;14.70;9.63;;;;;;;;;;4988802;28;20039;-96
2023/02/28 04:19:12;;;;;;;12.07;9.38;;;;;;;;;;4968701;28;20069;-95
2023/02/28 04:21:40;;;;;;;14.32;9.50;;;;;;;;;;4983887;28;20031;-96
2023/02/28 04:30:55;;;;;;;12.75;9.40;;;;;;;;;;4996828;28;20057;-96
2023/02/28 04:33:22;;;;;;;14.73;9.93;;;;;;;;;;4934030;29;20040;-96
2023/02/28 04:35:50;;;;;;;15.85;10.05;;;;;;;;;;4914933;29;20083;-96
2023/02/28 04:38:16;;;;;;;14.60;10.18;;;;;;;;;;4914045;29;20044;-96
2023/02/28 04:40:42;;;;;;;14.00;9.63;;;;;;;;;;4908398;29;20036;-92
2023/02/28 04:43:08;;;;;;;13.32;9.48;;;;;;;;;;4912108;29;20128;-90
2023/02/28 04:45:35;;;;;;;12.85;8.80;;;;;;;;;;4910947;29;20047;-91
2023/02/28 04:48:01;;;;;;;14.63;9.70;;;;;;;;;;4920829;29;20068;-91
2023/02/28 04:50:27;;;;;;;15.07;9.93;;;;;;;;;;4904962;29;20035;-91
2023/02/28 04:52:54;;;;;;;14.57;9.50;;;;;;;;;;4905196;29;20119;-90
2023/02/28 04:58:23;;;;;;;13.77;9.48;;;;;;;;;;4920631;29;20047;-90
2023/02/28 05:00:50;;;;;;;14.25;9.43;;;;;;;;;;4920729;29;20042;-90
2023/02/28 05:03:16;;;;;;;14.93;9.65;;;;;;;;;;4904941;29;20114;-91
2023/02/28 05:05:42;;;;;;;13.80;10.38;;;;;;;;;;4920527;29;20036;-91
2023/02/28 05:08:09;;;;;;;14.82;10.45;;;;;;;;;;4920493;29;20413;-91
2023/02/28 05:10:35;;;;;;;14.15;9.57;;;;;;;;;;4946719;28;20035;-90
2023/02/28 05:13:01;;;;;;;16.23;10.88;;;;;;;;;;4979276;28;20023;-91
2023/02/28 05:15:27;;;;;;;15.63;11.13;;;;;;;;;;4979665;28;20302;-91
2023/02/28 05:17:53;;;;;;;16.52;12.15;;;;;;;;;;4979736;28;20038;-91
2023/02/28 05:20:20;;;;;;;14.10;10.35;;;;;;;;;;4962202;28;20022;-91
2023/02/28 05:22:47;;;;;;;16.77;10.40;;;;;;;;;;4978401;28;20117;-90
2023/02/28 05:25:16;;;;;;;14.98;9.48;;;;;;;;;;4979138;28;20033;-90
2023/02/28 05:27:42;;;;;;;16.13;9.90;;;;;;;;;;4961930;28;20038;-90
2023/02/28 05:30:12;;;;;;;16.08;10.00;;;;;;;;;;4978759;28;20050;-90
2023/02/28 05:32:42;;;;;;;15.55;10.70;;;;;;;;;;4942554;29;20042;-91
2023/02/28 05:35:08;;;;;;;34.72;17.20;;;;;;;;;;4960407;28;20038;-90
2023/02/28 05:37:34;;;;;;;28.33;16.65;;;;;;;;;;4960284;28;20035;-91
2023/02/28 05:40:00;;;;;;;47.20;23.15;;;;;;;;;;4975815;28;20039;-90
2023/02/28 05:42:26;;;;;;;25.45;15.27;;;;;;;;;;4960378;28;20062;-90
2023/02/28 05:44:52;;;;;;;17.23;10.75;;;;;;;;;;4958777;28;20091;-90
2023/02/28 05:47:19;;;;;;;14.98;10.05;;;;;;;;;;4961307;28;20027;-91
2023/02/28 05:49:45;;;;;;;19.63;11.07;;;;;;;;;;4962177;28;20069;-91
2023/02/28 05:52:11;;;;;;;16.38;10.48;;;;;;;;;;4961458;28;20066;-91
2023/02/28 05:54:38;;;;;;;21.25;12.63;;;;;;;;;;4979023;28;20023;-90
2023/02/28 05:57:04;;;;;;;18.85;12.70;;;;;;;;;;4978932;28;20306;-91
2023/02/28 05:59:30;;;;;;;16.65;11.70;;;;;;;;;;4964933;28;20030;-90
2023/02/28 06:01:56;;;;;;;17.38;11.65;;;;;;;;;;4956846;29;20035;-91
2023/02/28 06:04:22;;;;;;;14.50;10.82;;;;;;;;;;4941942;29;20031;-90
2023/02/28 06:06:49;;;;;;;18.58;11.73;;;;;;;;;;4941876;29;20363;-91
2023/02/28 06:09:15;;;;;;;16.05;10.88;;;;;;;;;;4959459;29;20118;-91
2023/02/28 06:14:44;;;;;;;19.00;13.35;;;;;;;;;;4959997;29;20026;-91
2023/02/28 06:17:10;;;;;;;18.83;13.07;;;;;;;;;;4959877;29;20322;-91
2023/02/28 06:19:41;;;;;;;20.13;13.60;;;;;;;;;;4944772;29;20026;-90
2023/02/28 06:22:07;;;;;;;18.85;11.90;;;;;;;;;;4958646;29;20090;-90
2023/02/28 06:24:33;;;;;;;15.05;10.98;;;;;;;;;;4961681;28;20023;-90
2023/02/28 06:27:04;;;;;;;15.43;11.10;;;;;;;;;;4961579;28;20023;-91
2023/02/28 06:29:31;;;;;;;17.02;11.27;;;;;;;;;;4978856;28;20042;-91
2023/02/28 06:31:57;;;;;;;13.73;10.52;;;;;;;;;;4959039;29;20090;-90
2023/02/28 06:34:23;;;;;;;15.95;10.68;;;;;;;;;;4969126;28;20024;-88
2023/02/28 06:36:51;;;;;;;17.15;11.27;;;;;;;;;;4961630;28;20046;-91
2023/02/28 06:39:17;;;;;;;18.90;12.55;;;;;;;;;;4979248;28;20066;-90
2023/02/28 06:41:45;;;;;;;18.88;12.43;;;;;;;;;;4978960;28;20027;-91
2023/02/28 06:44:12;;;;;;;17.83;12.15;;;;;;;;;;4964722;28;20055;-91
2023/02/28 06:46:39;;;;;;;18.10;12.38;;;;;;;;;;4978525;28;20127;-92
2023/02/28 06:49:08;;;;;;;18.05;12.77;;;;;;;;;;4978335;28;20475;-91
2023/02/28 06:51:34;;;;;;;21.30;14.35;;;;;;;;;;4961345;28;20026;-91
2023/02/28 06:54:00;;;;;;;21.95;14.10;;;;;;;;;;4978557;28;20031;-91
2023/02/28 06:56:26;;;;;;;23.02;15.45;;;;;;;;;;4961355;28;20027;-91
2023/02/28 06:58:52;;;;;;;18.52;13.35;;;;;;;;;;4979092;28;20047;-91
2023/02/28 07:01:19;;;;;;;19.52;13.45;;;;;;;;;;4981770;28;20038;-91
2023/02/28 07:03:45;;;;;;;19.02;13.52;;;;;;;;;;4964849;28;20043;-91
2023/02/28 07:06:11;;;;;;;19.70;13.73;;;;;;;;;;4981671;28;20066;-90
2023/02/28 07:08:39;;;;;;;19.45;12.90;;;;;;;;;;4981784;28;20033;-91
2023/02/28 07:11:05;;;;;;;16.90;12.30;;;;;;;;;;4981840;28;20054;-91
2023/02/28 07:13:32;;;;;;;17.10;11.65;;;;;;;;;;4981604;28;20023;-91
2023/02/28 07:16:02;;;;;;;18.52;12.85;;;;;;;;;;4981842;28;20026;-91
2023/02/28 07:18:28;;;;;;;18.95;12.07;;;;;;;;;;4981861;28;20041;-90
2023/02/28 07:20:54;;;;;;;20.02;12.20;;;;;;;;;;4981645;28;20058;-91
2023/02/28 07:23:20;;;;;;;16.70;11.93;;;;;;;;;;4981617;28;20031;-90
2023/02/28 07:25:46;;;;;;;17.38;12.10;;;;;;;;;;4963960;28;20039;-91
2023/02/28 07:28:13;;;;;;;23.90;14.93;;;;;;;;;;4964293;28;20019;-91
2023/02/28 07:30:39;;;;;;;23.65;16.52;;;;;;;;;;4964427;28;20026;-91
2023/02/28 07:33:05;;;;;;;21.45;15.43;;;;;;;;;;4964483;28;20113;-91
2023/02/28 07:35:32;;;;;;;18.02;13.25;;;;;;;;;;4964175;28;20347;-91
2023/02/28 07:37:58;;;;;;;17.55;14.85;;;;;;;;;;4981398;28;20034;-91
2023/02/28 07:40:25;;;;;;;18.63;14.45;;;;;;;;;;4981357;28;20057;-92
2023/02/28 07:42:51;;;;;;;17.83;12.73;;;;;;;;;;4981167;28;20041;-91
2023/02/28 07:45:17;;;;;;;20.85;14.27;;;;;;;;;;4964015;28;20058;-91
2023/02/28 07:47:44;;;;;;;24.48;16.55;;;;;;;;;;4981412;28;20037;-91
2023/02/28 07:50:11;;;;;;;21.88;15.30;;;;;;;;;;4981266;28;20311;-91
2023/02/28 07:52:38;;;;;;;24.13;18.85;;;;;;;;;;4981001;28;20033;-92
2023/02/28 07:55:04;;;;;;;23.63;17.73;;;;;;;;;;4981190;28;20329;-91
2023/02/28 07:57:31;;;;;;;18.48;14.15;;;;;;;;;;4980829;28;20050;-91
2023/02/28 07:59:57;;;;;;;19.58;15.20;;;;;;;;;;4980810;28;20039;-91
2023/02/28 08:02:23;;;;;;;24.95;18.80;;;;;;;;;;4964020;28;20122;-91
2023/02/28 08:04:49;;;;;;;41.58;20.15;;;;;;;;;;4980728;28;20065;-91
2023/02/28 08:07:15;;;;;;;19.63;15.13;;;;;;;;;;4963533;28;20046;-90
2023/02/28 08:09:41;;;;;;;47.55;21.63;;;;;;;;;;4963238;28;20051;-92
2023/02/28 08:12:08;;;;;;;44.08;21.95;;;;;;;;;;4963631;28;20023;-90
2023/02/28 08:14:34;;;;;;;35.20;20.75;;;;;;;;;;4963880;28;20031;-91
2023/02/28 08:17:00;;;;;;;90.10;28.13;;;;;;;;;;4980532;28;20113;-90
2023/02/28 08:19:27;;;;;;;83.53;28.17;;;;;;;;;;4963585;28;20084;-91
2023/02/28 08:21:53;;;;;;;57.92;22.95;;;;;;;;;;4980527;28;20066;-91
2023/02/28 08:24:19;;;;;;;30.30;19.50;;;;;;;;;;4980516;28;20019;-91
2023/02/28 08:26:45;;;;;;;48.63;26.25;;;;;;;;;;4980452;28;20098;-91
2023/02/28 08:29:11;;;;;;;41.50;23.02;;;;;;;;;;4979929;28;20030;-91
2023/02/28 08:31:38;;;;;;;28.70;19.20;;;;;;;;;;4962962;28;20027;-91
2023/02/28 08:34:07;;;;;;;24.30;16.88;;;;;;;;;;4980675;28;20030;-90
2023/02/28 08:36:33;;;;;;;22.70;16.30;;;;;;;;;;4980486;28;20053;-91
2023/02/28 08:38:59;;;;;;;28.70;18.67;;;;;;;;;;4963006;28;20043;-91
2023/02/28 08:41:26;;;;;;;39.20;23.55;;;;;;;;;;4979984;28;20445;-91
2023/02/28 08:43:53;;;;;;;34.58;19.70;;;;;;;;;;4979641;28;20025;-90
2023/02/28 08:46:19;;;;;;;25.48;17.40;;;;;;;;;;4979855;28;20038;-91
2023/02/28 08:48:45;;;;;;;37.80;18.75;;;;;;;;;;4962939;28;20121;-91
2023/02/28 08:51:18;;;;;;;52.63;21.23;;;;;;;;;;4979936;28;20038;-90
2023/02/28 08:53:44;;;;;;;;;;;;;;;;;;4980458;28;20023;-90
2023/02/28 08:56:12;;;;;;;30.40;16.92;;;;;;;;;;4979683;28;20306;-91
2023/02/28 08:58:38;;;;;;;33.90;18.65;;;;;;;;;;4962360;28;20050;-91
2023/02/28 09:01:09;;;;;;;33.92;18.58;;;;;;;;;;4979919;28;20030;-91
2023/02/28 09:03:35;;;;;;;24.33;16.92;;;;;;;;;;4979929;28;20370;-91
2023/02/28 09:06:01;;;;;;;24.73;17.55;;;;;;;;;;4979541;28;20062;-91
2023/02/28 09:08:28;;;;;;;23.27;16.67;;;;;;;;;;4979823;28;20031;-91
2023/02/28 09:10:56;;;;;;;28.75;19.50;;;;;;;;;;4979518;28;20035;-91
2023/02/28 09:13:22;;;;;;;28.52;19.38;;;;;;;;;;4979791;28;20097;-91
2023/02/28 09:15:48;;;;;;;28.48;19.50;;;;;;;;;;4979743;28;20073;-91
2023/02/28 09:18:14;;;;;;;30.08;19.83;;;;;;;;;;4979672;28;20050;-91
2023/02/28 09:20:41;;;;;;;40.40;20.95;;;;;;;;;;4979627;28;20537;-91
2023/02/28 09:23:08;;;;;;;69.40;27.15;;;;;;;;;;4961304;28;20035;-91
2023/02/28 09:25:34;;;;;;;67.72;25.67;;;;;;;;;;4979128;28;20034;-90
2023/02/28 09:28:00;;;;;;;85.65;28.30;;;;;;;;;;4979230;28;20027;-90
2023/02/28 09:30:26;;;;;;;72.22;28.85;;;;;;;;;;4979311;28;20030;-91
2023/02/28 09:32:53;;;;;;;47.83;24.98;;;;;;;;;;4979461;28;20110;-92
2023/02/28 09:35:22;;;;;;;35.88;22.58;;;;;;;;;;4979104;28;20413;-90
2023/02/28 09:37:51;;;;;;;61.42;25.80;;;;;;;;;;4979345;28;20050;-90
2023/02/28 09:40:17;;;;;;;59.80;25.98;;;;;;;;;;4979193;28;20346;-91
2023/02/28 09:42:46;;;;;;;53.22;28.83;;;;;;;;;;4961488;28;20361;-86
2023/02/28 09:45:36;;;;;;;44.72;24.33;;;;;;;;;;4978867;28;20122;-91
2023/02/28 09:48:04;;;;;;;39.08;24.27;;;;;;;;;;4979337;28;20078;-91
2023/02/28 09:50:30;;;;;;;35.65;22.38;;;;;;;;;;4979159;28;20045;-91
2023/02/28 09:52:57;;;;;;;34.97;20.45;;;;;;;;;;4978968;28;20018;-91
2023/02/28 09:55:30;;;;;;;33.47;20.15;;;;;;;;;;4961972;28;20329;-91
2023/02/28 09:57:59;;;;;;;35.33;21.45;;;;;;;;;;4978901;28;20054;-91
2023/02/28 10:00:30;;;;;;;36.58;22.13;;;;;;;;;;4979124;28;20322;-91
2023/02/28 10:02:59;;;;;;;45.08;24.13;;;;;;;;;;4978911;28;20030;-91
2023/02/28 10:05:31;;;;;;;40.75;23.75;;;;;;;;;;4978757;28;20491;-91
2023/02/28 10:08:13;;;;;;;36.42;21.83;;;;;;;;;;4961721;28;20038;-91
2023/02/28 10:10:41;;;;;;;31.27;21.17;;;;;;;;;;4961263;28;20066;-91
2023/02/28 10:13:13;;;;;;;38.03;22.40;;;;;;;;;;4979032;28;20030;-91
2023/02/28 10:15:39;;;;;;;44.58;25.02;;;;;;;;;;4978954;28;20023;-91
2023/02/28 10:18:09;;;;;;;44.03;23.38;;;;;;;;;;4978726;28;20341;-90
2023/02/28 10:20:37;;;;;;;43.03;24.02;;;;;;;;;;4978662;28;20366;-91
2023/02/28 10:23:17;;;;;;;49.13;25.15;;;;;;;;;;4978905;28;20031;-91
2023/02/28 10:25:47;;;;;;;40.95;22.50;;;;;;;;;;4961519;28;20033;-91
2023/02/28 10:28:15;;;;;;;46.55;24.08;;;;;;;;;;4961676;28;20027;-90
2023/02/28 10:30:45;;;;;;;49.17;24.52;;;;;;;;;;4961316;28;20038;-91
2023/02/28 10:33:31;;;;;;;35.97;23.00;;;;;;;;;;4978474;28;20027;-91
2023/02/28 10:35:57;;;;;;;33.03;21.65;;;;;;;;;;4965522;28;20050;-91
2023/02/28 10:38:27;;;;;;;43.17;25.02;;;;;;;;;;4981981;28;20022;-91
2023/02/28 10:41:14;;;;;;;36.75;22.23;;;;;;;;;;4965227;28;20449;-90
2023/02/28 10:43:41;;;;;;;37.22;25.70;;;;;;;;;;4982194;28;20030;-91
2023/02/28 10:46:10;;;;;;;32.70;22.42;;;;;;;;;;4965156;28;20054;-91
2023/02/28 10:48:39;;;;;;;35.35;23.58;;;;;;;;;;4982650;28;20022;-91
2023/02/28 10:51:12;;;;;;;32.38;21.77;;;;;;;;;;4982327;28;20061;-91
2023/02/28 10:53:52;;;;;;;37.63;24.70;;;;;;;;;;4965187;28;20023;-91
2023/02/28 10:56:21;;;;;;;36.90;26.25;;;;;;;;;;4982003;28;20034;-91
2023/02/28 10:58:49;;;;;;;32.85;22.20;;;;;;;;;;4981648;28;20043;-91
2023/02/28 11:01:35;;;;;;;42.33;25.02;;;;;;;;;;4982153;28;20324;-91
2023/02/28 11:04:01;;;;;;;41.88;25.25;;;;;;;;;;4922871;29;20074;-91
2023/02/28 11:06:30;;;;;;;41.05;22.83;;;;;;;;;;4922771;29;20415;-91
2023/02/28 11:08:57;;;;;;;45.83;26.85;;;;;;;;;;4922571;29;20044;-91
2023/02/28 11:11:28;;;;;;;44.10;26.02;;;;;;;;;;4922749;29;20020;-91
2023/02/28 11:13:56;;;;;;;37.20;24.10;;;;;;;;;;4922930;29;20024;-92
2023/02/28 11:16:30;;;;;;;42.70;24.30;;;;;;;;;;4922794;29;20036;-91
2023/02/28 11:18:59;;;;;;;59.20;27.63;;;;;;;;;;4906707;29;20091;-92
2023/02/28 11:21:28;;;;;;;95.95;36.03;;;;;;;;;;4922240;29;20040;-91
2023/02/28 11:23:59;;;;;;;107.30;47.65;;;;;;;;;;4922708;29;20035;-91
2023/02/28 11:26:45;;;;;;;65.72;35.30;;;;;;;;;;4922332;29;20032;-91
2023/02/28 11:29:22;;;;;;;40.40;26.48;;;;;;;;;;4906548;29;20039;-92
2023/02/28 11:32:01;;;;;;;45.00;26.92;;;;;;;;;;4922442;29;20128;-92
2023/02/28 11:34:28;;;;;;;35.15;23.65;;;;;;;;;;4922226;29;20036;-91
2023/02/28 11:36:56;;;;;;;36.92;23.45;;;;;;;;;;4906404;29;20076;-90
2023/02/28 11:39:23;;;;;;;34.00;23.10;;;;;;;;;;4921856;29;20036;-90
2023/02/28 11:45:22;;;;;;;35.58;23.17;;;;;;;;;;4980694;28;20045;-90
2023/02/28 11:47:48;;;;;;;40.65;25.92;;;;;;;;;;4981150;28;20473;-90
2023/02/28 11:50:33;;;;;;;36.45;23.45;;;;;;;;;;4981307;28;20432;-91
2023/02/28 11:53:11;;;;;;;36.85;24.35;;;;;;;;;;4964475;28;20045;-90
2023/02/28 11:55:45;;;;;;;37.67;24.50;;;;;;;;;;4961867;28;20034;-89
2023/02/28 11:58:11;;;;;;;44.38;27.90;;;;;;;;;;4968792;28;20070;-89
2023/02/28 12:00:55;;;;;;;46.13;31.25;;;;;;;;;;4981006;28;20073;-89
2023/02/28 12:03:32;;;;;;;48.55;30.10;;;;;;;;;;4978567;28;20039;-89
2023/02/28 12:06:09;;;;;;;39.80;26.00;;;;;;;;;;4963805;28;20333;-89
2023/02/28 12:08:52;;;;;;;41.42;26.52;;;;;;;;;;4963721;28;20070;-89
2023/02/28 12:11:40;;;;;;;41.47;26.27;;;;;;;;;;4954132;28;20317;-89
2023/02/28 12:14:12;;;;;;;40.22;25.38;;;;;;;;;;4980881;28;20102;-89
2023/02/28 12:16:38;;;;;;;;;;;;;;;;;;4981362;28;20035;-89
2023/02/28 12:19:22;;;;;;;39.15;24.50;;;;;;;;;;4972601;28;20276;-88
2023/02/28 12:22:06;;;;;;;37.42;23.08;;;;;;;;;;4963675;28;20035;-89
2023/02/28 12:24:55;;;;;;;30.75;20.88;;;;;;;;;;4980347;28;20034;-89
2023/02/28 12:27:23;;;;;;;35.00;22.55;;;;;;;;;;4963390;28;20026;-89
2023/02/28 12:29:49;;;;;;;24.85;18.17;;;;;;;;;;4963441;28;20039;-88
2023/02/28 12:32:21;;;;;;;28.05;19.05;;;;;;;;;;4980810;28;20034;-89
2023/02/28 12:34:52;;;;;;;23.90;17.40;;;;;;;;;;4980180;28;20472;-89
2023/02/28 12:37:23;;;;;;;25.27;15.98;;;;;;;;;;4952713;28;20042;-88
2023/02/28 12:39:52;;;;;;;24.20;16.48;;;;;;;;;;4964804;28;20027;-89
2023/02/28 12:48:42;;;;;;;41.53;25.95;;;;;;;;;;4960858;29;20386;-89
2023/02/28 12:51:09;;;;;;;37.97;25.88;;;;;;;;;;4961487;28;20110;-89
2023/02/28 12:53:49;;;;;;;39.33;26.25;;;;;;;;;;4974886;28;20428;-88
2023/02/28 12:56:35;;;;;;;30.73;21.60;;;;;;;;;;4962694;28;20129;-88
2023/02/28 12:59:11;;;;;;;34.20;23.55;;;;;;;;;;4979568;28;20050;-89
2023/02/28 13:01:54;;;;;;;34.10;21.90;;;;;;;;;;4952294;29;20039;-89
2023/02/28 13:04:33;;;;;;;35.70;21.95;;;;;;;;;;4960231;29;20414;-89
2023/02/28 13:07:05;;;;;;;31.48;18.90;;;;;;;;;;4968101;28;20078;-89
2023/02/28 13:09:31;;;;;;;30.00;19.42;;;;;;;;;;4979765;28;20362;-89
2023/02/28 13:15:23;;;;;;;29.00;19.67;;;;;;;;;;4979903;28;20423;-90
2023/02/28 13:17:50;;;;;;;33.47;22.25;;;;;;;;;;4961879;28;20122;-88
2023/02/28 13:20:27;;;;;;;28.98;19.65;;;;;;;;;;4979683;28;20055;-89
2023/02/28 13:22:54;;;;;;;27.33;19.95;;;;;;;;;;4979413;28;20402;-89
2023/02/28 13:32:07;;;;;;;27.17;18.63;;;;;;;;;;4979564;28;20038;-88
2023/02/28 13:34:37;;;;;;;26.05;19.00;;;;;;;;;;4979158;28;20119;-88
2023/02/28 13:37:18;;;;;;;32.10;20.90;;;;;;;;;;4979434;28;20027;-89
2023/02/28 13:39:47;;;;;;;39.13;26.00;;;;;;;;;;4978884;28;20142;-90
2023/02/28 13:42:19;;;;;;;41.13;26.52;;;;;;;;;;4963302;28;20035;-89
2023/02/28 13:45:03;;;;;;;42.10;26.17;;;;;;;;;;4968961;28;20027;-90
2023/02/28 13:47:29;;;;;;;34.42;23.80;;;;;;;;;;4952256;29;20054;-89
2023/02/28 13:50:14;;;;;;;38.08;25.10;;;;;;;;;;4942928;29;20102;-89
2023/02/28 13:52:53;;;;;;;37.90;25.42;;;;;;;;;;4967986;28;20066;-88
2023/02/28 13:55:22;;;;;;;39.03;26.83;;;;;;;;;;4950299;28;20038;-89
2023/02/28 13:57:57;;;;;;;40.22;24.95;;;;;;;;;;4969206;28;20054;-90
2023/02/28 14:00:41;;;;;;;36.08;23.23;;;;;;;;;;4961717;28;20429;-89
2023/02/28 14:03:22;;;;;;;38.08;23.80;;;;;;;;;;4978780;28;20074;-85
2023/02/28 14:06:08;;;;;;;32.78;22.45;;;;;;;;;;4961803;28;20051;-89
2023/02/28 14:08:34;;;;;;;32.42;22.08;;;;;;;;;;4961338;28;20039;-90
2023/02/28 14:14:04;;;;;;;31.20;19.88;;;;;;;;;;4974527;28;20033;-89
2023/02/28 14:16:41;;;;;;;29.95;20.17;;;;;;;;;;4967794;28;20034;-89
2023/02/28 14:19:33;;;;;;;28.52;18.52;;;;;;;;;;4959761;29;20023;-89
2023/02/28 14:22:14;;;;;;;31.95;20.98;;;;;;;;;;4948231;29;20174;-89
2023/02/28 14:24:52;;;;;;;36.25;23.17;;;;;;;;;;4959806;29;20038;-90
2023/02/28 14:27:39;;;;;;;38.78;25.38;;;;;;;;;;4972354;28;20038;-89
2023/02/28 14:30:23;;;;;;;36.05;24.25;;;;;;;;;;4959492;29;20047;-89
2023/02/28 14:33:01;;;;;;;35.78;23.02;;;;;;;;;;4964181;28;20030;-90
2023/02/28 14:35:27;;;;;;;37.80;23.77;;;;;;;;;;4957880;28;20026;-89
2023/02/28 14:37:54;;;;;;;31.67;21.08;;;;;;;;;;4961897;28;20045;-88
2023/02/28 14:40:23;;;;;;;43.30;22.80;;;;;;;;;;4970087;28;20425;-89
2023/02/28 14:43:00;;;;;;;108.05;37.50;;;;;;;;;;4957719;29;20138;-89
2023/02/28 14:45:28;;;;;;;139.38;49.03;;;;;;;;;;4973641;28;20428;-88
2023/02/28 14:47:54;;;;;;;156.35;61.03;;;;;;;;;;4964671;28;20031;-88
2023/02/28 14:50:22;;;;;;;105.03;49.45;;;;;;;;;;4978120;28;20023;-90
2023/02/28 14:52:48;;;;;;;48.80;29.08;;;;;;;;;;4947412;29;20046;-89
2023/02/28 14:55:17;;;;;;;52.88;31.77;;;;;;;;;;4966491;28;20367;-89
2023/02/28 14:58:06;;;;;;;49.40;31.25;;;;;;;;;;4959261;28;20121;-89
2023/02/28 15:00:33;;;;;;;45.40;30.40;;;;;;;;;;4942507;28;20046;-89
2023/02/28 15:03:00;;;;;;;42.60;25.85;;;;;;;;;;4959696;29;20032;-92
2023/02/28 15:05:26;;;;;;;37.70;25.65;;;;;;;;;;4942458;29;20091;-91
2023/02/28 15:08:03;;;;;;;42.00;28.50;;;;;;;;;;4959672;29;20051;-92
2023/02/28 15:10:30;;;;;;;48.42;30.85;;;;;;;;;;4942454;29;20040;-91
2023/02/28 15:12:56;;;;;;;46.63;30.13;;;;;;;;;;4959616;29;20019;-90
2023/02/28 15:15:26;;;;;;;45.05;29.70;;;;;;;;;;4968976;28;20034;-91
2023/02/28 15:17:55;;;;;;;45.10;28.63;;;;;;;;;;4978758;28;20138;-91
2023/02/28 15:20:22;;;;;;;40.65;27.13;;;;;;;;;;4961609;28;20493;-91
2023/02/28 15:22:49;;;;;;;35.13;22.75;;;;;;;;;;4982016;28;20303;-91
2023/02/28 15:25:19;;;;;;;39.67;26.67;;;;;;;;;;4965447;28;20038;-91
2023/02/28 15:31:17;;;;;;;41.50;26.40;;;;;;;;;;4982252;28;20041;-91
2023/02/28 15:33:53;;;;;;;37.65;24.42;;;;;;;;;;4981879;28;20541;-91
2023/02/28 15:36:23;;;;;;;39.47;24.67;;;;;;;;;;4964149;28;20045;-91
2023/02/28 15:38:53;;;;;;;44.53;28.02;;;;;;;;;;4981947;28;20041;-90
2023/02/28 15:41:30;;;;;;;53.25;31.92;;;;;;;;;;4964242;28;20038;-91
2023/02/28 15:44:18;;;;;;;61.40;37.25;;;;;;;;;;4981818;28;20417;-91
2023/02/28 15:46:54;;;;;;;53.58;34.15;;;;;;;;;;4962688;29;20032;-91
2023/02/28 15:49:21;;;;;;;44.63;29.13;;;;;;;;;;4962570;29;20023;-91
2023/02/28 15:51:49;;;;;;;39.22;25.60;;;;;;;;;;4962647;29;20055;-91
2023/02/28 15:54:20;;;;;;;41.55;27.38;;;;;;;;;;4962026;29;20047;-91
2023/02/28 15:56:48;;;;;;;41.85;25.98;;;;;;;;;;4945286;29;20035;-91
2023/02/28 15:59:17;;;;;;;45.92;29.38;;;;;;;;;;4944903;29;20047;-91
2023/02/28 16:01:43;;;;;;;42.72;28.02;;;;;;;;;;4963229;28;20032;-91
2023/02/28 16:04:17;;;;;;;41.92;26.35;;;;;;;;;;4951542;29;20153;-91
2023/02/28 16:06:44;;;;;;;47.70;30.73;;;;;;;;;;4975852;28;20410;-91
2023/02/28 16:09:13;;;;;;;42.42;27.90;;;;;;;;;;4960503;29;20039;-92
2023/02/28 16:12:03;;;;;;;66.20;35.15;;;;;;;;;;4961573;28;20441;-91
2023/02/28 16:14:30;;;;;;;59.05;34.17;;;;;;;;;;4960683;28;20058;-91
2023/02/28 16:16:58;;;;;;;58.35;32.70;;;;;;;;;;4965602;28;20019;-92
2023/02/28 16:19:24;;;;;;;72.55;35.90;;;;;;;;;;4981570;28;20106;-90
2023/02/28 16:21:51;;;;;;;60.20;35.42;;;;;;;;;;4980965;28;20027;-91
2023/02/28 16:24:17;;;;;;;51.80;32.65;;;;;;;;;;4964181;28;20066;-91
2023/02/28 16:26:48;;;;;;;70.05;36.50;;;;;;;;;;4963719;28;20097;-91